createdAt,value
2022-10-15T00:03:31.914Z,45.71
2022-10-15T00:09:56.297Z,45.82
2022-10-15T00:16:20.634Z,45.68
2022-10-15T00:22:44.925Z,45.94
2022-10-15T00:29:09.215Z,45.99
2022-10-15T00:35:33.722Z,46.04
2022-10-15T00:41:58.023Z,46.10
2022-10-15T00:48:30.916Z,46.33
2022-10-15T00:54:55.162Z,46.28
2022-10-15T01:01:19.544Z,46.29
2022-10-15T01:07:43.842Z,46.41
2022-10-15T01:14:35.894Z,46.35
2022-10-15T01:21:18.157Z,46.40
2022-10-15T01:28:07.037Z,46.53
2022-10-15T01:34:43.238Z,46.67
2022-10-15T01:41:07.850Z,46.99
2022-10-15T01:47:44.318Z,46.87
2022-10-15T01:54:08.615Z,47.03
2022-10-15T02:00:32.892Z,46.96
2022-10-15T02:07:06.266Z,47.11
2022-10-15T02:13:38.104Z,47.17
2022-10-15T02:20:05.534Z,47.26
2022-10-15T02:26:29.849Z,47.12
2022-10-15T02:32:54.127Z,47.35
2022-10-15T02:39:18.397Z,47.40
2022-10-15T02:45:42.658Z,47.22
2022-10-15T02:52:07.277Z,47.37
2022-10-15T02:58:31.567Z,47.35
2022-10-15T03:04:55.795Z,47.36
2022-10-15T03:11:20.094Z,47.55
2022-10-15T03:17:44.517Z,47.62
2022-10-15T03:24:08.702Z,47.58
2022-10-15T03:30:33.016Z,47.57
2022-10-15T03:36:48.039Z,47.67
2022-10-15T03:43:12.238Z,47.69
2022-10-15T03:49:36.542Z,47.80
2022-10-15T03:56:00.751Z,47.94
2022-10-15T04:02:25.398Z,47.76
2022-10-15T04:08:49.983Z,47.94
2022-10-15T04:15:14.186Z,47.85
2022-10-15T04:21:41.463Z,47.94
2022-10-15T04:28:05.830Z,47.98
2022-10-15T04:34:30.097Z,47.91
2022-10-15T04:40:54.426Z,47.91
2022-10-15T04:47:18.645Z,47.70
2022-10-15T04:53:42.923Z,47.50
2022-10-15T05:00:07.229Z,47.12
2022-10-15T05:06:31.466Z,46.62
2022-10-15T05:12:56.895Z,46.23
2022-10-15T05:19:24.404Z,45.85
2022-10-15T05:25:43.276Z,45.80
2022-10-15T05:32:07.728Z,45.48
2022-10-15T05:38:32.095Z,45.20
2022-10-15T05:44:56.488Z,45.00
2022-10-15T05:51:20.729Z,44.80
2022-10-15T05:57:38.376Z,44.47
2022-10-15T06:03:42.269Z,44.31
2022-10-15T06:10:06.609Z,44.02
2022-10-15T06:16:33.799Z,43.96
2022-10-15T06:22:58.110Z,43.96
2022-10-15T06:29:22.317Z,43.64
2022-10-15T06:35:46.701Z,43.64
2022-10-15T06:42:10.608Z,43.47
2022-10-15T06:48:34.834Z,43.45
2022-10-15T06:54:59.090Z,43.39
2022-10-15T07:01:14.179Z,43.65
2022-10-15T07:07:38.426Z,43.83
2022-10-15T07:14:01.739Z,44.22
2022-10-15T07:20:25.918Z,44.55
2022-10-15T07:26:50.347Z,44.76
2022-10-15T07:33:14.674Z,44.87
2022-10-15T07:39:40.922Z,44.85
2022-10-15T07:45:59.702Z,44.96
2022-10-15T07:52:24.367Z,45.07
2022-10-15T07:58:48.861Z,45.25
2022-10-15T08:05:13.138Z,45.21
2022-10-15T08:11:37.441Z,45.34
2022-10-15T08:17:52.236Z,45.37
2022-10-15T08:24:16.438Z,45.43
2022-10-15T08:30:40.639Z,45.44
2022-10-15T08:37:07.970Z,45.58
2022-10-15T08:43:35.133Z,45.75
2022-10-15T08:50:02.320Z,45.83
2022-10-15T08:56:26.721Z,45.60
2022-10-15T09:02:57.010Z,45.56
2022-10-15T09:09:21.485Z,45.70
2022-10-15T09:15:45.885Z,45.64
2022-10-15T09:22:10.109Z,45.84
2022-10-15T09:28:27.474Z,46.03
2022-10-15T09:34:57.607Z,45.90
2022-10-15T09:41:21.899Z,45.76
2022-10-15T09:47:44.227Z,45.52
2022-10-15T09:54:33.190Z,45.20
2022-10-15T10:01:00.990Z,45.11
2022-10-15T10:07:25.306Z,44.91
2022-10-15T10:13:49.477Z,44.61
2022-10-15T10:20:13.801Z,44.24
2022-10-15T10:26:40.945Z,44.17
2022-10-15T10:33:14.051Z,44.17
2022-10-15T10:39:45.149Z,44.86
2022-10-15T10:53:11.073Z,46.86
2022-10-15T10:59:37.916Z,47.67
2022-10-15T11:06:08.055Z,47.70
2022-10-15T11:12:47.133Z,47.64
2022-10-15T11:19:18.614Z,47.38
2022-10-15T11:26:08.969Z,47.13
2022-10-15T11:33:05.636Z,47.15
2022-10-15T11:39:45.713Z,46.72
2022-10-15T11:46:15.935Z,46.45
2022-10-15T11:52:57.455Z,46.42
2022-10-15T11:59:30.891Z,46.59
2022-10-15T12:06:07.769Z,46.51
2022-10-15T12:12:38.450Z,46.61
2022-10-15T12:19:08.873Z,46.45
2022-10-15T12:25:38.997Z,45.99
2022-10-15T12:32:03.217Z,45.75
2022-10-15T12:38:32.162Z,45.93
2022-10-15T12:44:59.093Z,46.09
2022-10-15T12:51:37.161Z,46.15
2022-10-15T12:58:32.633Z,46.32
2022-10-15T13:04:59.750Z,46.39
2022-10-15T13:11:35.976Z,46.11
2022-10-15T13:18:00.284Z,46.34
2022-10-15T13:24:26.977Z,46.42
2022-10-15T13:30:54.307Z,46.69
2022-10-15T13:37:18.561Z,46.44
2022-10-15T13:43:45.329Z,46.15
2022-10-15T13:50:12.460Z,45.98
2022-10-15T13:56:40.300Z,45.63
2022-10-15T14:03:07.041Z,45.62
2022-10-15T14:09:34.000Z,45.50
2022-10-15T14:15:56.453Z,45.38
2022-10-15T14:22:22.015Z,45.25
2022-10-15T14:28:46.339Z,45.12
2022-10-15T14:35:12.293Z,45.02
2022-10-15T14:41:39.544Z,44.89
2022-10-15T14:47:59.320Z,44.67
2022-10-15T14:54:25.106Z,44.71
2022-10-15T15:00:55.279Z,44.58
2022-10-15T15:07:19.582Z,44.68
2022-10-15T15:13:43.813Z,44.63
2022-10-15T15:20:08.007Z,44.62
2022-10-15T15:26:32.311Z,44.47
2022-10-15T15:32:56.650Z,44.49
2022-10-15T15:39:20.905Z,44.47
2022-10-15T15:45:45.257Z,44.20
2022-10-15T15:52:18.824Z,44.42
2022-10-15T15:58:43.138Z,44.43
2022-10-15T16:05:07.589Z,44.63
2022-10-15T16:11:24.996Z,44.46
2022-10-15T16:17:49.271Z,44.41
2022-10-15T16:24:13.542Z,44.34
2022-10-15T16:30:37.770Z,44.28
2022-10-15T16:37:02.045Z,44.15
2022-10-15T16:43:18.817Z,44.18
2022-10-15T16:49:43.046Z,44.19
2022-10-15T16:56:07.763Z,44.33
2022-10-15T17:02:32.042Z,44.48
2022-10-15T17:08:56.350Z,44.61
2022-10-15T17:15:20.655Z,44.70
2022-10-15T17:21:40.348Z,44.78
2022-10-15T17:28:08.433Z,44.61
2022-10-15T17:34:38.139Z,44.64
2022-10-15T17:41:02.454Z,44.66
2022-10-15T17:47:27.186Z,44.88
2022-10-15T17:53:51.767Z,45.14
2022-10-15T18:00:16.058Z,45.53
2022-10-15T18:06:40.261Z,45.98
2022-10-15T18:12:54.012Z,46.40
2022-10-15T18:19:18.454Z,46.47
2022-10-15T18:25:42.756Z,46.52
2022-10-15T18:32:09.962Z,46.48
2022-10-15T18:38:34.280Z,46.37
2022-10-15T18:44:58.577Z,46.11
2022-10-15T18:51:22.992Z,46.13
2022-10-15T18:57:47.161Z,46.31
2022-10-15T19:04:11.377Z,46.36
2022-10-15T19:10:35.742Z,46.29
2022-10-15T19:17:00.028Z,46.02
2022-10-15T19:23:24.314Z,45.86
2022-10-15T19:29:48.557Z,46.50
2022-10-15T19:42:41.860Z,47.19
2022-10-15T19:49:06.213Z,47.19
2022-10-15T19:55:30.605Z,47.16
2022-10-15T20:01:54.913Z,46.72
2022-10-15T20:08:19.213Z,46.26
2022-10-15T20:14:43.644Z,46.06
2022-10-15T20:21:07.999Z,45.92
2022-10-15T20:27:32.750Z,45.72
2022-10-15T20:33:56.977Z,45.60
2022-10-15T20:40:21.494Z,45.56
2022-10-15T20:46:46.937Z,45.66
2022-10-15T20:53:11.263Z,45.68
2022-10-15T20:59:36.260Z,45.58
2022-10-15T21:06:00.523Z,45.87
2022-10-15T21:12:24.723Z,45.95
2022-10-15T21:18:49.304Z,45.98
2022-10-15T21:25:13.502Z,46.00
2022-10-15T21:31:38.062Z,45.93
2022-10-15T21:38:02.332Z,45.91
2022-10-15T21:44:26.504Z,45.83
2022-10-15T21:50:50.851Z,45.84
2022-10-15T21:57:15.048Z,45.73
2022-10-15T22:03:39.910Z,45.90
2022-10-15T22:10:04.201Z,45.82
2022-10-15T22:16:28.518Z,46.01
2022-10-15T22:22:52.836Z,45.99
2022-10-15T22:29:17.014Z,46.03
2022-10-15T22:35:41.458Z,46.12
2022-10-15T22:42:05.856Z,46.06
2022-10-15T22:48:30.138Z,46.17
2022-10-15T22:54:57.434Z,46.27
2022-10-15T23:01:21.833Z,46.34
2022-10-15T23:07:46.211Z,46.48
2022-10-15T23:14:00.501Z,46.58
2022-10-15T23:20:24.861Z,46.72
2022-10-15T23:26:49.132Z,46.74
2022-10-15T23:33:13.347Z,46.78
2022-10-15T23:39:37.563Z,46.85
2022-10-15T23:46:01.895Z,47.13
2022-10-15T23:52:26.205Z,47.08
2022-10-15T23:58:50.510Z,47.13
